Time;durP1;ratioP1;P1;durP2;ratioP2;P2;SDS_P1;SDS_P2;PMS_P1;PMS_P2;Temp;Humidity;BMP_temperature;BMP_pressure;BME280_temperature;BME280_humidity;BME280_pressure;Samples;Min_cycle;Max_cycle;Signal;HPM_P1;HPM_P2
2022/01/10 00:02:11;;;;;;;69.50;28.48;;;2.50;99.90;;;;;;5043254;28;20033;-87
2022/01/10 00:04:37;;;;;;;65.97;28.77;;;2.50;99.90;;;;;;5026754;28;20065;-85
2022/01/10 00:07:03;;;;;;;62.83;26.70;;;2.50;99.90;;;;;;5043279;28;20096;-87
2022/01/10 00:09:29;;;;;;;70.25;28.05;;;2.50;99.90;;;;;;5042956;28;20454;-86
2022/01/10 00:11:55;;;;;;;64.60;28.33;;;2.40;99.90;;;;;;5024571;28;20114;-87
2022/01/10 00:14:21;;;;;;;65.75;27.80;;;2.40;99.90;;;;;;5051786;28;20042;-86
2022/01/10 00:16:47;;;;;;;65.45;27.40;;;2.50;99.90;;;;;;5047517;28;20029;-86
2022/01/10 00:19:13;;;;;;;64.97;27.10;;;2.40;99.90;;;;;;5048444;28;20033;-87
2022/01/10 00:21:39;;;;;;;64.28;27.75;;;2.50;99.90;;;;;;5027071;28;20025;-88
2022/01/10 00:24:05;;;;;;;65.30;28.48;;;2.50;99.90;;;;;;5042909;28;20041;-87
2022/01/10 00:26:31;;;;;;;65.57;27.63;;;2.50;99.90;;;;;;5043132;28;20089;-86
2022/01/10 00:28:56;;;;;;;59.05;24.90;;;2.50;99.90;;;;;;5045294;28;20068;-87
2022/01/10 00:31:22;;;;;;;70.47;26.15;;;2.50;99.90;;;;;;5020191;28;20037;-87
2022/01/10 00:33:48;;;;;;;65.75;26.33;;;2.60;99.90;;;;;;5033134;28;20026;-86
2022/01/10 00:36:15;;;;;;;72.40;28.45;;;2.50;99.90;;;;;;5045906;28;20051;-86
2022/01/10 00:38:41;;;;;;;68.35;28.02;;;2.60;99.90;;;;;;5047132;28;20018;-87
2022/01/10 00:41:07;;;;;;;65.07;27.95;;;2.60;99.90;;;;;;5039753;28;20037;-87
2022/01/10 00:43:36;;;;;;;59.20;25.40;;;2.60;99.90;;;;;;5042515;28;20034;-85
2022/01/10 00:46:04;;;;;;;64.53;26.80;;;2.70;99.90;;;;;;5041765;28;20034;-87
2022/01/10 00:48:30;;;;;;;69.20;28.67;;;2.70;99.90;;;;;;5015423;28;20029;-87
2022/01/10 00:50:56;;;;;;;64.32;27.08;;;2.70;99.90;;;;;;5033524;28;20558;-88
2022/01/10 00:53:22;;;;;;;71.07;27.17;;;2.70;99.90;;;;;;5016287;28;20045;-85
2022/01/10 00:55:49;;;;;;;69.68;27.58;;;2.70;99.90;;;;;;5039784;28;20085;-86
2022/01/10 00:58:15;;;;;;;66.85;27.00;;;2.70;99.90;;;;;;5024744;28;20037;-85
2022/01/10 01:00:41;;;;;;;64.20;27.75;;;2.60;99.90;;;;;;5040598;28;20026;-86
2022/01/10 01:03:06;;;;;;;69.65;28.80;;;2.60;99.90;;;;;;5040606;28;20052;-85
2022/01/10 01:05:38;;;;;;;66.03;28.23;;;2.60;99.90;;;;;;5040374;28;20021;-84
2022/01/10 01:08:07;;;;;;;67.70;27.85;;;2.60;99.90;;;;;;5040960;28;20045;-83
2022/01/10 01:19:01;;;;;;;76.22;29.33;;;2.60;99.90;;;;;;5037168;28;20034;-86
2022/01/10 01:24:07;;;;;;;74.65;29.20;;;2.70;99.90;;;;;;5036669;28;20037;-86
2022/01/10 01:26:45;;;;;;;69.28;29.20;;;2.70;99.90;;;;;;5038299;28;20018;-87
2022/01/10 01:29:15;;;;;;;72.55;28.75;;;2.70;99.90;;;;;;5021605;28;20405;-88
2022/01/10 01:31:42;;;;;;;75.93;28.63;;;2.60;99.90;;;;;;5015345;28;20058;-86
2022/01/10 01:34:10;;;;;;;68.93;29.67;;;2.60;99.90;;;;;;5013562;28;20053;-88
2022/01/10 01:36:37;;;;;;;67.57;28.80;;;2.60;99.90;;;;;;5022036;28;20045;-85
2022/01/10 01:39:10;;;;;;;72.22;28.45;;;2.60;99.90;;;;;;5017198;28;20033;-87
2022/01/10 01:41:40;;;;;;;69.43;28.43;;;2.60;99.90;;;;;;5033397;28;20097;-87
2022/01/10 01:44:07;;;;;;;72.00;29.88;;;2.50;99.90;;;;;;5037643;28;20056;-85
2022/01/10 01:46:34;;;;;;;79.75;31.15;;;2.60;99.90;;;;;;5023427;28;20029;-85
2022/01/10 01:49:02;;;;;;;73.32;28.00;;;2.60;99.90;;;;;;5023207;28;20022;-86
2022/01/10 01:51:28;;;;;;;66.50;29.23;;;2.60;99.90;;;;;;5022113;28;20137;-85
2022/01/10 01:53:54;;;;;;;67.32;27.83;;;2.60;99.90;;;;;;5039416;28;20061;-86
2022/01/10 01:56:22;;;;;;;75.68;29.25;;;2.50;99.90;;;;;;5022013;28;20081;-86
2022/01/10 01:58:48;;;;;;;67.20;28.45;;;2.50;99.90;;;;;;5022172;28;20048;-86
2022/01/10 02:01:18;;;;;;;71.32;29.92;;;2.50;99.90;;;;;;5038560;28;20029;-86
2022/01/10 02:03:47;;;;;;;73.60;29.60;;;2.50;99.90;;;;;;5022781;28;20037;-86
2022/01/10 02:06:18;;;;;;;74.10;29.23;;;2.50;99.90;;;;;;5022617;28;20040;-86
2022/01/10 02:08:44;;;;;;;71.85;29.27;;;2.50;99.90;;;;;;5039312;28;20057;-86
2022/01/10 02:11:13;;;;;;;66.15;28.00;;;2.50;99.90;;;;;;5015037;28;20041;-87
2022/01/10 02:13:42;;;;;;;67.80;28.45;;;2.60;99.90;;;;;;5030521;28;20032;-84
2022/01/10 02:16:45;;;;;;;70.78;27.88;;;2.60;99.90;;;;;;5038731;28;20018;-85
2022/01/10 02:19:26;;;;;;;;;;;2.60;99.90;;;;;;5038480;28;20167;-87
2022/01/10 02:21:53;;;;;;;67.88;28.05;;;2.60;99.90;;;;;;5035752;28;19937;-85
2022/01/10 02:24:20;;;;;;;76.88;28.20;;;2.60;99.90;;;;;;5019373;28;20010;-86
2022/01/10 02:26:48;;;;;;;65.50;29.13;;;2.70;99.90;;;;;;5021840;28;20105;-85
2022/01/10 02:29:14;;;;;;;69.97;28.45;;;2.60;99.90;;;;;;5021975;28;20030;-87
2022/01/10 02:31:41;;;;;;;74.57;28.50;;;2.60;99.90;;;;;;5035560;28;20041;-85
2022/01/10 02:34:08;;;;;;;74.65;29.88;;;2.70;99.90;;;;;;5021973;28;20054;-86
2022/01/10 02:36:34;;;;;;;63.22;27.50;;;2.70;99.90;;;;;;5022034;28;20029;-87
2022/01/10 02:39:04;;;;;;;64.80;27.75;;;2.70;99.90;;;;;;5021656;28;20014;-85
2022/01/10 02:41:33;;;;;;;66.03;27.92;;;2.70;99.90;;;;;;5021664;28;20028;-86
2022/01/10 02:44:05;;;;;;;68.90;28.65;;;2.70;99.90;;;;;;5021999;28;20021;-87
2022/01/10 02:46:36;;;;;;;62.35;28.17;;;2.70;99.90;;;;;;5038378;28;20010;-86
2022/01/10 02:49:13;;;;;;;63.22;27.38;;;2.70;99.90;;;;;;5038071;28;20089;-87
2022/01/10 02:51:42;;;;;;;69.40;28.00;;;2.70;99.90;;;;;;5017961;28;20098;-88
2022/01/10 02:54:09;;;;;;;64.97;27.25;;;2.70;99.90;;;;;;5036612;28;20018;-86
2022/01/10 02:56:45;;;;;;;67.13;28.30;;;2.70;99.90;;;;;;5020795;28;20061;-87
2022/01/10 02:59:12;;;;;;;69.38;27.70;;;2.70;99.90;;;;;;5025127;28;20128;-88
2022/01/10 03:01:38;;;;;;;70.45;28.25;;;2.70;99.90;;;;;;5022986;28;20033;-86
2022/01/10 03:04:04;;;;;;;64.72;27.33;;;2.70;99.90;;;;;;5005751;28;20478;-87
2022/01/10 03:06:30;;;;;;;68.95;28.73;;;2.70;99.90;;;;;;5006001;28;20076;-86
2022/01/10 03:08:56;;;;;;;69.82;29.17;;;2.70;99.90;;;;;;5023355;28;20057;-87
2022/01/10 03:11:21;;;;;;;68.45;28.15;;;2.60;99.90;;;;;;5023849;28;20026;-86
2022/01/10 03:13:49;;;;;;;66.88;28.38;;;2.70;99.90;;;;;;5005605;28;20046;-87
2022/01/10 03:16:15;;;;;;;63.60;28.33;;;2.70;99.90;;;;;;5026614;28;20018;-85
2022/01/10 03:18:41;;;;;;;68.00;28.60;;;2.70;99.90;;;;;;5033094;28;20037;-88
2022/01/10 03:21:07;;;;;;;68.35;28.27;;;2.70;99.90;;;;;;5033598;28;20089;-86
2022/01/10 03:23:34;;;;;;;64.20;27.25;;;2.70;99.90;;;;;;5016815;28;20026;-87
2022/01/10 03:26:00;;;;;;;66.20;28.25;;;2.80;99.90;;;;;;5015307;28;20057;-86
2022/01/10 03:28:26;;;;;;;76.05;27.98;;;2.80;99.90;;;;;;5013339;28;20104;-88
2022/01/10 03:30:51;;;;;;;57.58;26.98;;;2.80;99.90;;;;;;5025256;28;20014;-87
2022/01/10 03:33:20;;;;;;;66.85;27.65;;;2.80;99.90;;;;;;5031653;28;20064;-85
2022/01/10 03:35:46;;;;;;;67.72;27.75;;;2.80;99.90;;;;;;5010104;28;20080;-88
2022/01/10 03:38:15;;;;;;;59.55;26.65;;;2.70;99.90;;;;;;5021883;28;20052;-87
2022/01/10 03:40:41;;;;;;;65.30;29.05;;;2.70;99.90;;;;;;5023104;28;20490;-86
2022/01/10 03:43:13;;;;;;;67.10;28.50;;;2.60;99.90;;;;;;5022899;28;20033;-86
2022/01/10 03:45:39;;;;;;;64.57;28.38;;;2.50;99.90;;;;;;5027509;28;20026;-85
2022/01/10 03:48:06;;;;;;;73.97;29.75;;;2.50;99.90;;;;;;5036143;28;20022;-85
2022/01/10 03:50:32;;;;;;;67.90;27.65;;;2.50;99.90;;;;;;5010653;28;20136;-89
2022/01/10 03:52:58;;;;;;;73.90;28.75;;;2.50;99.90;;;;;;5021729;28;20030;-86
2022/01/10 03:55:24;;;;;;;64.22;28.30;;;2.50;99.90;;;;;;5027564;28;20068;-86
2022/01/10 03:57:52;;;;;;;71.85;29.33;;;2.60;99.90;;;;;;5023229;28;20744;-88
2022/01/10 04:00:18;;;;;;;68.15;27.90;;;2.60;99.90;;;;;;5023006;28;20052;-88
2022/01/10 04:02:51;;;;;;;63.78;28.02;;;2.60;99.90;;;;;;5024462;28;20040;-87
2022/01/10 04:05:22;;;;;;;71.78;29.23;;;2.50;99.90;;;;;;5018366;28;20082;-86
2022/01/10 04:07:48;;;;;;;64.85;28.65;;;2.50;99.90;;;;;;5030813;28;20034;-88
2022/01/10 04:10:14;;;;;;;70.30;29.02;;;2.40;99.90;;;;;;5027609;28;20037;-88
2022/01/10 04:12:40;;;;;;;65.88;28.30;;;2.50;99.90;;;;;;5034470;28;20022;-88
2022/01/10 04:15:08;;;;;;;68.07;28.20;;;2.50;99.90;;;;;;5021027;28;20560;-88
2022/01/10 04:17:35;;;;;;;64.93;27.52;;;2.60;99.90;;;;;;5021160;28;20101;-85
2022/01/10 04:20:01;;;;;;;68.82;28.08;;;2.60;99.90;;;;;;5025903;28;20018;-85
2022/01/10 04:22:27;;;;;;;66.22;29.13;;;2.60;99.90;;;;;;5033180;28;20049;-85
2022/01/10 04:24:53;;;;;;;68.18;28.50;;;2.60;99.90;;;;;;5041106;28;20014;-85
2022/01/10 04:27:19;;;;;;;63.95;28.00;;;2.50;99.90;;;;;;5039600;28;20034;-87
2022/01/10 04:29:45;;;;;;;66.82;28.38;;;2.50;99.90;;;;;;5013629;28;20030;-86
2022/01/10 04:32:12;;;;;;;63.67;27.27;;;2.50;99.90;;;;;;5038631;28;20029;-88
2022/01/10 04:34:39;;;;;;;60.10;27.17;;;2.60;99.90;;;;;;5023470;28;20057;-87
2022/01/10 04:37:06;;;;;;;65.95;26.90;;;2.70;99.90;;;;;;5020113;28;20065;-86
2022/01/10 04:39:34;;;;;;;62.42;25.55;;;2.60;99.90;;;;;;5032748;28;20014;-88
2022/01/10 04:42:00;;;;;;;58.25;24.92;;;2.60;99.90;;;;;;5051660;23;20034;-84
2022/01/10 04:44:26;;;;;;;63.78;25.63;;;2.60;99.90;;;;;;5005563;28;20045;-83
2022/01/10 04:46:52;;;;;;;58.67;24.80;;;2.70;99.90;;;;;;5040900;28;20037;-84
2022/01/10 04:49:24;;;;;;;58.67;24.15;;;2.70;99.90;;;;;;5023869;28;20026;-83
2022/01/10 04:51:51;;;;;;;56.67;22.23;;;2.60;99.90;;;;;;5023748;28;20029;-84
2022/01/10 04:54:18;;;;;;;55.72;23.20;;;2.80;99.90;;;;;;5023691;28;20033;-83
2022/01/10 04:56:45;;;;;;;50.13;20.63;;;2.80;99.90;;;;;;5023907;28;20048;-84
2022/01/10 04:59:12;;;;;;;38.40;17.48;;;2.90;99.90;;;;;;5022433;28;20030;-85
2022/01/10 05:01:38;;;;;;;34.10;16.10;;;3.00;99.90;;;;;;5018513;28;20053;-83
2022/01/10 05:04:05;;;;;;;26.23;11.73;;;3.10;99.90;;;;;;5036412;28;20022;-83
2022/01/10 05:06:31;;;;;;;23.83;10.80;;;3.30;99.90;;;;;;5019727;28;20025;-84
2022/01/10 05:08:57;;;;;;;23.02;9.88;;;3.50;99.90;;;;;;5003351;28;20057;-83
2022/01/10 05:11:36;;;;;;;22.80;8.57;;;3.50;99.90;;;;;;5023315;28;20052;-82
2022/01/10 05:14:03;;;;;;;19.98;7.85;;;3.60;99.90;;;;;;5007286;28;20045;-84
2022/01/10 05:16:28;;;;;;;20.00;7.60;;;3.80;99.90;;;;;;5002681;28;20510;-82
2022/01/10 05:18:54;;;;;;;18.55;6.35;;;3.80;99.90;;;;;;5037244;28;20025;-84
2022/01/10 05:21:20;;;;;;;13.90;5.15;;;3.90;99.90;;;;;;5020523;28;20010;-86
2022/01/10 05:23:47;;;;;;;8.60;4.28;;;4.00;99.90;;;;;;5003417;28;20057;-85
2022/01/10 05:26:13;;;;;;;9.77;4.63;;;4.00;99.90;;;;;;5035556;28;20014;-84
2022/01/10 05:28:40;;;;;;;11.30;4.45;;;4.10;99.90;;;;;;5021321;28;20014;-85
2022/01/10 05:31:06;;;;;;;10.60;4.65;;;4.10;99.90;;;;;;5022981;28;20022;-84
2022/01/10 05:33:42;;;;;;;10.48;4.30;;;4.10;99.90;;;;;;5007669;28;20056;-84
2022/01/10 05:36:07;;;;;;;11.68;4.60;;;4.10;99.90;;;;;;5036967;28;20042;-85
2022/01/10 05:38:33;;;;;;;11.90;4.32;;;4.20;99.90;;;;;;5036131;28;20707;-85
2022/01/10 05:40:59;;;;;;;14.35;4.75;;;4.10;99.90;;;;;;5017815;28;20072;-85
2022/01/10 05:43:25;;;;;;;8.75;3.88;;;4.10;99.90;;;;;;5016354;28;20036;-85
2022/01/10 05:45:54;;;;;;;14.13;4.72;;;4.20;99.90;;;;;;5018080;28;20022;-84
2022/01/10 05:48:25;;;;;;;12.43;4.38;;;4.30;99.90;;;;;;5037628;28;20034;-84
2022/01/10 05:50:54;;;;;;;10.75;4.45;;;4.20;99.90;;;;;;5022237;28;20014;-83
2022/01/10 05:53:22;;;;;;;12.45;4.25;;;4.30;99.90;;;;;;5022068;28;20026;-84
2022/01/10 05:55:48;;;;;;;10.27;4.60;;;4.30;99.90;;;;;;5022095;28;20060;-85
2022/01/10 05:58:16;;;;;;;13.23;5.00;;;4.30;99.90;;;;;;5020946;28;20018;-84
2022/01/10 06:00:43;;;;;;;10.15;4.38;;;4.30;99.90;;;;;;5021867;28;20014;-85
2022/01/10 06:03:09;;;;;;;9.10;4.03;;;4.30;99.90;;;;;;5038186;28;20033;-84
2022/01/10 06:05:40;;;;;;;13.05;3.83;;;4.40;99.90;;;;;;5019783;28;20026;-83
2022/01/10 06:08:08;;;;;;;8.75;3.75;;;4.40;99.90;;;;;;5019499;28;20045;-85
2022/01/10 06:10:37;;;;;;;10.30;3.70;;;4.40;99.90;;;;;;5017782;28;20030;-85
2022/01/10 06:13:16;;;;;;;10.45;3.80;;;4.40;99.90;;;;;;5018278;28;20038;-83
2022/01/10 06:15:42;;;;;;;13.15;3.83;;;4.40;99.90;;;;;;5019612;28;20137;-84
2022/01/10 06:18:08;;;;;;;9.05;4.20;;;4.40;99.90;;;;;;5021372;28;20082;-84
2022/01/10 06:20:34;;;;;;;21.13;8.00;;;4.40;99.90;;;;;;5038995;28;20022;-83
2022/01/10 06:23:00;;;;;;;10.00;4.20;;;4.40;99.90;;;;;;5021638;28;20132;-85
2022/01/10 06:25:27;;;;;;;12.27;4.13;;;4.40;99.90;;;;;;5038826;28;20103;-86
2022/01/10 06:27:53;;;;;;;10.18;3.60;;;4.40;99.90;;;;;;5021239;28;20018;-85
2022/01/10 06:30:19;;;;;;;9.48;4.40;;;4.40;99.90;;;;;;5020584;28;20046;-83
2022/01/10 06:32:47;;;;;;;13.50;4.65;;;4.40;99.90;;;;;;5004350;28;20040;-84
2022/01/10 06:35:16;;;;;;;8.70;4.20;;;4.50;99.90;;;;;;5020532;28;20042;-85
2022/01/10 06:37:43;;;;;;;10.77;3.78;;;4.50;99.90;;;;;;5016232;28;20038;-85
2022/01/10 06:40:12;;;;;;;9.73;4.00;;;4.50;99.90;;;;;;5013268;28;20045;-86
2022/01/10 06:42:44;;;;;;;12.98;4.50;;;4.50;99.90;;;;;;5015252;28;20493;-85
2022/01/10 06:45:12;;;;;;;12.23;4.18;;;4.60;99.90;;;;;;5014979;28;20048;-86
2022/01/10 06:47:39;;;;;;;10.85;3.85;;;4.60;99.90;;;;;;4998561;28;20030;-86
2022/01/10 06:50:07;;;;;;;7.72;3.63;;;4.60;99.90;;;;;;5031258;28;20034;-86
2022/01/10 06:52:38;;;;;;;8.98;4.47;;;4.60;99.90;;;;;;5012644;28;20025;-87
2022/01/10 06:55:04;;;;;;;13.30;4.30;;;4.60;99.90;;;;;;5010584;28;20060;-86
2022/01/10 06:57:30;;;;;;;10.25;4.60;;;4.60;99.90;;;;;;5011662;28;20025;-85
2022/01/10 06:59:57;;;;;;;12.30;5.10;;;4.70;99.90;;;;;;4994400;28;20026;-84
2022/01/10 07:02:27;;;;;;;13.38;4.72;;;4.70;99.90;;;;;;5019510;28;20076;-85
2022/01/10 07:04:55;;;;;;;7.47;3.85;;;4.70;99.90;;;;;;5026341;28;20030;-85
2022/01/10 07:07:21;;;;;;;15.02;3.95;;;4.70;99.90;;;;;;5027092;28;20395;-87
2022/01/10 07:09:49;;;;;;;9.93;4.15;;;4.70;99.90;;;;;;5029016;28;20040;-88
2022/01/10 07:12:15;;;;;;;8.95;4.10;;;4.80;99.90;;;;;;5025435;28;20026;-85
2022/01/10 07:14:52;;;;;;;9.77;3.70;;;4.80;99.90;;;;;;5027842;28;20045;-85
2022/01/10 07:17:18;;;;;;;11.65;4.10;;;4.80;99.90;;;;;;5029081;28;20053;-86
2022/01/10 07:19:43;;;;;;;6.63;3.65;;;4.80;99.90;;;;;;5031985;28;20022;-86
2022/01/10 07:22:17;;;;;;;9.18;3.35;;;4.80;99.90;;;;;;5016851;28;20041;-86
2022/01/10 07:24:43;;;;;;;8.07;4.03;;;4.80;99.90;;;;;;5032503;28;20053;-86
2022/01/10 07:27:08;;;;;;;10.95;4.18;;;4.80;99.90;;;;;;5034233;28;20021;-87
2022/01/10 07:29:34;;;;;;;9.80;4.05;;;4.80;99.90;;;;;;5032325;28;20068;-85
2022/01/10 07:32:00;;;;;;;10.70;3.95;;;4.80;99.90;;;;;;5033496;28;20010;-85
2022/01/10 07:34:26;;;;;;;8.85;4.13;;;4.70;99.90;;;;;;5035014;28;20089;-84
2022/01/10 07:36:52;;;;;;;15.25;4.43;;;4.80;99.90;;;;;;5031032;28;20066;-84
2022/01/10 07:39:18;;;;;;;13.15;4.10;;;4.80;99.90;;;;;;5031623;28;20041;-86
2022/01/10 07:41:44;;;;;;;9.02;4.25;;;4.90;99.90;;;;;;5032374;28;20026;-85
2022/01/10 07:44:18;;;;;;;;;;;4.80;99.90;;;;;;5032390;28;20058;-83
2022/01/10 07:46:44;;;;;;;15.18;4.68;;;4.90;99.90;;;;;;5024612;28;19897;-84
2022/01/10 07:49:10;;;;;;;9.07;3.45;;;4.90;99.90;;;;;;5023643;28;20080;-87
2022/01/10 07:51:36;;;;;;;9.43;3.83;;;4.90;99.90;;;;;;5029908;28;20197;-84
2022/01/10 07:54:02;;;;;;;8.98;4.35;;;4.80;99.90;;;;;;5024423;28;20033;-86
2022/01/10 07:56:28;;;;;;;15.25;4.65;;;4.80;99.90;;;;;;5020767;28;20026;-86
2022/01/10 07:58:54;;;;;;;14.35;4.40;;;4.80;99.90;;;;;;5028664;28;20085;-85
2022/01/10 08:01:20;;;;;;;10.95;4.60;;;4.80;99.90;;;;;;5030455;28;20029;-84
2022/01/10 08:03:49;;;;;;;14.50;5.20;;;4.80;99.90;;;;;;5032907;28;20026;-85
2022/01/10 08:06:17;;;;;;;12.32;4.70;;;4.80;99.90;;;;;;5026575;28;20052;-84
2022/01/10 08:08:43;;;;;;;14.57;5.68;;;4.70;99.90;;;;;;5030837;28;20053;-84
2022/01/10 08:11:08;;;;;;;12.30;5.75;;;4.80;99.90;;;;;;5034326;28;20029;-84
2022/01/10 08:13:34;;;;;;;14.70;5.03;;;4.70;99.90;;;;;;5025020;28;20038;-86
2022/01/10 08:16:00;;;;;;;13.70;4.57;;;4.70;99.90;;;;;;5012429;28;20026;-84
2022/01/10 08:18:26;;;;;;;15.52;5.65;;;4.80;99.90;;;;;;5027815;28;20040;-86
2022/01/10 08:20:52;;;;;;;16.25;4.90;;;4.80;99.90;;;;;;4995872;28;20037;-85
2022/01/10 08:23:18;;;;;;;12.98;5.55;;;4.80;99.90;;;;;;5000203;28;20026;-86
2022/01/10 08:25:44;;;;;;;11.75;5.38;;;4.80;99.90;;;;;;5049210;28;20077;-86
2022/01/10 08:28:09;;;;;;;11.27;4.97;;;4.80;99.90;;;;;;5032697;28;20026;-83
2022/01/10 08:30:35;;;;;;;11.93;5.20;;;4.80;99.90;;;;;;5021696;28;20068;-84
2022/01/10 08:33:01;;;;;;;13.23;4.95;;;4.70;99.90;;;;;;5022528;28;20049;-85
2022/01/10 08:35:27;;;;;;;9.98;4.93;;;4.70;99.90;;;;;;5032857;28;20022;-85
2022/01/10 08:37:53;;;;;;;13.18;5.07;;;4.70;99.90;;;;;;5007701;28;20041;-87
2022/01/10 08:40:19;;;;;;;11.77;5.55;;;4.60;99.90;;;;;;5021210;28;20038;-85
2022/01/10 08:42:45;;;;;;;12.60;5.32;;;4.60;99.90;;;;;;5022227;28;20072;-82
2022/01/10 08:45:11;;;;;;;12.60;5.40;;;4.60;99.90;;;;;;5015754;28;20031;-82
2022/01/10 08:47:38;;;;;;;16.52;5.18;;;4.60;99.90;;;;;;5006256;28;20010;-82
2022/01/10 08:50:07;;;;;;;12.85;5.30;;;4.60;99.90;;;;;;5036529;28;20033;-82
2022/01/10 08:52:33;;;;;;;12.80;5.32;;;4.60;99.90;;;;;;5028568;28;20010;-80
2022/01/10 08:54:59;;;;;;;12.07;5.22;;;4.60;99.90;;;;;;5033105;28;20044;-83
2022/01/10 08:57:26;;;;;;;9.13;5.22;;;4.60;99.90;;;;;;5030023;28;20018;-81
2022/01/10 08:59:52;;;;;;;12.98;5.57;;;4.60;99.90;;;;;;5027627;28;20040;-81
2022/01/10 09:02:18;;;;;;;12.55;5.38;;;4.50;99.90;;;;;;5005639;28;20009;-82
2022/01/10 09:04:44;;;;;;;13.90;5.82;;;4.50;99.90;;;;;;5020771;28;20022;-84
2022/01/10 09:07:11;;;;;;;13.27;6.35;;;4.50;99.90;;;;;;5020123;28;20080;-84
2022/01/10 09:09:37;;;;;;;13.88;6.28;;;4.50;99.90;;;;;;5032359;28;20033;-84
2022/01/10 09:12:04;;;;;;;13.65;6.07;;;4.60;99.90;;;;;;4999077;28;20034;-85
2022/01/10 09:14:31;;;;;;;12.50;6.30;;;4.60;99.90;;;;;;5018860;28;20030;-84
2022/01/10 09:16:57;;;;;;;13.60;6.22;;;4.50;99.90;;;;;;4995289;28;20109;-85
2022/01/10 09:19:22;;;;;;;14.90;6.68;;;4.60;99.90;;;;;;5013100;28;20013;-84
2022/01/10 09:21:49;;;;;;;14.25;5.97;;;4.60;99.90;;;;;;5015379;28;20025;-84
2022/01/10 09:24:15;;;;;;;15.95;6.30;;;4.60;99.90;;;;;;5017758;28;20029;-84
2022/01/10 09:26:41;;;;;;;13.25;5.93;;;4.70;99.90;;;;;;5027212;28;20010;-82
2022/01/10 09:29:07;;;;;;;13.65;6.70;;;4.70;99.90;;;;;;5038883;28;20064;-82
2022/01/10 09:31:33;;;;;;;13.77;7.15;;;4.80;99.90;;;;;;5037614;28;20049;-83
2022/01/10 09:34:00;;;;;;;14.10;6.85;;;4.80;99.90;;;;;;5026682;28;20038;-83
2022/01/10 09:36:28;;;;;;;15.38;6.65;;;4.80;99.90;;;;;;5009612;28;20042;-83
2022/01/10 09:38:57;;;;;;;16.17;6.80;;;4.90;99.90;;;;;;5038850;28;20114;-83
2022/01/10 09:41:23;;;;;;;12.90;6.47;;;4.90;99.90;;;;;;5039952;28;20049;-80
2022/01/10 09:43:56;;;;;;;15.93;7.57;;;4.80;99.90;;;;;;5039846;28;20054;-80
2022/01/10 09:46:24;;;;;;;17.27;7.90;;;4.90;99.90;;;;;;5000884;28;20034;-84
2022/01/10 09:48:50;;;;;;;22.38;8.45;;;4.80;99.90;;;;;;5018263;28;20045;-82
2022/01/10 09:51:16;;;;;;;14.30;7.68;;;4.80;99.90;;;;;;5038597;28;20038;-81
2022/01/10 09:53:42;;;;;;;22.25;8.63;;;4.90;99.90;;;;;;5026749;28;20381;-83
2022/01/10 09:56:08;;;;;;;18.17;8.68;;;4.80;99.90;;;;;;5024878;28;20026;-84
2022/01/10 09:58:35;;;;;;;15.23;8.75;;;4.90;99.90;;;;;;5014092;28;20044;-85
2022/01/10 10:01:02;;;;;;;16.40;8.40;;;4.90;99.90;;;;;;5023350;28;20034;-85
2022/01/10 10:03:28;;;;;;;20.08;9.38;;;4.90;99.90;;;;;;5020421;28;20045;-85
2022/01/10 10:05:55;;;;;;;18.05;9.02;;;5.00;99.90;;;;;;5022389;28;20025;-84
2022/01/10 10:08:22;;;;;;;21.30;8.90;;;4.90;99.90;;;;;;5009055;28;20022;-84
2022/01/10 10:10:49;;;;;;;16.50;9.05;;;4.90;99.90;;;;;;5010860;28;20034;-83
2022/01/10 10:13:16;;;;;;;15.30;8.30;;;4.90;99.90;;;;;;5019671;28;20033;-84
2022/01/10 10:15:44;;;;;;;18.08;9.70;;;4.90;99.90;;;;;;5019673;28;20068;-84
2022/01/10 10:18:17;;;;;;;19.30;9.55;;;4.90;99.90;;;;;;5021092;28;20076;-82
2022/01/10 10:20:44;;;;;;;14.85;8.52;;;5.00;99.90;;;;;;5014546;28;20014;-84
2022/01/10 10:23:14;;;;;;;21.30;9.80;;;5.00;99.90;;;;;;5007260;28;20061;-83
2022/01/10 10:25:54;;;;;;;22.48;10.05;;;5.00;99.90;;;;;;5018986;28;20041;-83
2022/01/10 10:28:21;;;;;;;22.05;10.63;;;5.10;99.90;;;;;;5027651;28;20041;-83
2022/01/10 10:30:47;;;;;;;20.38;10.52;;;5.10;99.90;;;;;;5003323;28;20030;-84
2022/01/10 10:33:22;;;;;;;20.42;10.77;;;5.10;99.90;;;;;;5015989;28;20835;-82
2022/01/10 10:36:07;;;;;;;22.77;11.53;;;5.10;99.90;;;;;;5030026;28;20030;-83
2022/01/10 10:38:34;;;;;;;21.98;11.15;;;5.10;99.90;;;;;;5021156;28;20073;-83
2022/01/10 10:41:01;;;;;;;24.60;11.75;;;5.10;99.90;;;;;;5021071;28;20041;-83
2022/01/10 10:51:36;;;;;;;23.67;11.70;;;5.10;99.90;;;;;;5478185;22;20050;-92
2022/01/10 10:54:18;;;;;;;25.55;11.88;;;5.10;99.90;;;;;;5020209;28;20057;-93
2022/01/10 10:56:57;;;;;;;23.38;11.25;;;5.10;99.90;;;;;;5020106;28;20022;-92
2022/01/10 10:59:36;;;;;;;25.52;12.23;;;5.10;99.90;;;;;;4991020;28;20110;-91
2022/01/10 11:02:16;;;;;;;24.95;12.50;;;5.10;99.90;;;;;;5036383;28;20046;-89
2022/01/10 11:04:52;;;;;;;20.90;11.35;;;5.10;99.90;;;;;;5003669;28;20041;-92
2022/01/10 11:07:27;;;;;;;26.27;12.43;;;5.10;99.90;;;;;;5020286;28;20011;-89
2022/01/10 11:10:01;;;;;;;27.25;13.48;;;5.10;99.90;;;;;;4984260;28;20019;-91
2022/01/10 11:12:29;;;;;;;23.90;11.82;;;5.10;99.90;;;;;;5016239;28;20011;-90
2022/01/10 11:14:59;;;;;;;24.98;12.20;;;5.10;99.90;;;;;;4984200;28;20015;-91
2022/01/10 11:17:29;;;;;;;25.52;13.10;;;5.10;99.90;;;;;;4984488;28;20030;-91
2022/01/10 11:20:17;;;;;;;24.55;12.43;;;5.20;99.90;;;;;;5000723;28;20071;-82
2022/01/10 11:22:50;;;;;;;24.17;11.60;;;5.20;99.90;;;;;;5032408;28;20106;-87
2022/01/10 11:25:24;;;;;;;21.23;11.32;;;5.30;99.90;;;;;;5038263;28;20030;-86
2022/01/10 11:27:51;;;;;;;22.92;12.13;;;5.30;99.90;;;;;;5052616;28;20116;-88
2022/01/10 11:30:32;;;;;;;23.83;12.35;;;5.20;99.90;;;;;;5021525;28;20258;-87
2022/01/10 11:33:03;;;;;;;28.58;12.48;;;5.20;99.90;;;;;;5033467;28;20037;-87
2022/01/10 11:35:32;;;;;;;24.50;12.82;;;5.10;99.90;;;;;;5037061;28;20114;-87
2022/01/10 11:37:59;;;;;;;27.63;11.30;;;5.10;99.90;;;;;;5018393;28;20022;-86
2022/01/10 11:40:26;;;;;;;23.75;12.80;;;5.10;99.90;;;;;;5018728;28;20018;-86
2022/01/10 11:42:59;;;;;;;23.08;12.15;;;5.00;99.90;;;;;;5034046;28;20014;-88
2022/01/10 11:45:26;;;;;;;24.98;12.18;;;5.10;99.90;;;;;;5018110;28;20074;-88
2022/01/10 11:48:02;;;;;;;23.77;12.80;;;5.10;99.90;;;;;;5018278;28;20015;-88
2022/01/10 11:50:31;;;;;;;25.17;11.55;;;5.20;99.90;;;;;;4999439;28;20102;-88
2022/01/10 11:53:01;;;;;;;21.00;11.65;;;5.20;99.90;;;;;;5014416;28;20077;-88
2022/01/10 11:55:50;;;;;;;24.10;12.00;;;5.10;99.90;;;;;;4998147;28;20037;-87
2022/01/10 11:58:23;;;;;;;25.00;11.60;;;5.20;99.90;;;;;;5025392;28;20027;-88
2022/01/10 12:00:51;;;;;;;22.42;11.80;;;5.20;99.90;;;;;;5017910;28;20022;-87
2022/01/10 12:03:19;;;;;;;19.23;10.98;;;5.20;99.90;;;;;;5017829;28;20014;-89
2022/01/10 12:05:46;;;;;;;21.30;11.30;;;5.30;99.90;;;;;;5033719;28;20039;-87
2022/01/10 12:08:11;;;;;;;22.45;11.93;;;5.30;99.90;;;;;;5017961;28;20010;-88
2022/01/10 12:10:37;;;;;;;19.65;11.63;;;5.40;99.90;;;;;;5017988;28;20074;-85
2022/01/10 12:13:12;;;;;;;20.58;11.50;;;5.50;99.90;;;;;;5017333;28;20015;-91
2022/01/10 12:15:39;;;;;;;23.40;12.30;;;5.50;99.90;;;;;;5053389;23;20044;-90
2022/01/10 12:18:07;;;;;;;26.63;12.13;;;5.60;99.90;;;;;;5000532;28;20014;-91
2022/01/10 12:20:34;;;;;;;21.50;11.38;;;5.60;99.90;;;;;;5020473;28;20092;-91
2022/01/10 12:23:00;;;;;;;22.90;12.38;;;5.60;99.90;;;;;;5031923;28;20014;-90
2022/01/10 12:25:28;;;;;;;23.20;12.88;;;5.60;99.90;;;;;;5015144;28;20028;-89
2022/01/10 12:27:56;;;;;;;26.35;11.77;;;5.60;99.90;;;;;;5016585;28;20025;-90
2022/01/10 12:30:25;;;;;;;19.58;11.25;;;5.50;99.90;;;;;;5017053;28;20106;-91
2022/01/10 12:32:52;;;;;;;20.45;11.25;;;5.50;99.90;;;;;;5017039;28;20029;-89
2022/01/10 12:35:19;;;;;;;21.38;11.05;;;5.40;99.90;;;;;;5017717;28;20038;-90
2022/01/10 12:37:45;;;;;;;23.05;11.68;;;5.30;99.90;;;;;;5016561;28;20014;-91
2022/01/10 12:40:14;;;;;;;22.65;11.75;;;5.30;99.90;;;;;;5003028;28;20092;-91
2022/01/10 12:42:40;;;;;;;23.38;11.73;;;5.30;99.90;;;;;;5021237;28;20010;-91
2022/01/10 12:45:10;;;;;;;24.55;12.55;;;5.30;99.90;;;;;;5021885;28;20026;-91
2022/01/10 12:47:36;;;;;;;24.88;12.00;;;5.30;99.90;;;;;;5015054;28;20051;-92
2022/01/10 12:50:03;;;;;;;22.55;11.75;;;5.40;99.90;;;;;;5002022;28;20031;-92
2022/01/10 12:52:29;;;;;;;22.50;12.25;;;5.30;99.90;;;;;;5001885;28;20023;-89
2022/01/10 12:54:55;;;;;;;23.90;12.77;;;5.40;99.90;;;;;;5008786;28;20066;-90
2022/01/10 12:57:22;;;;;;;27.38;12.65;;;5.50;99.90;;;;;;5020355;28;20010;-90
2022/01/10 12:59:48;;;;;;;21.70;11.57;;;5.70;99.90;;;;;;5020376;28;20029;-91
2022/01/10 13:02:14;;;;;;;28.05;11.73;;;5.70;99.90;;;;;;5018054;28;20026;-91
2022/01/10 13:04:41;;;;;;;24.55;12.25;;;5.80;99.90;;;;;;5016622;28;20022;-90
2022/01/10 13:07:12;;;;;;;21.75;11.98;;;5.70;99.90;;;;;;5015883;28;20441;-91